sensor_id;sensor_type;location;lat;lon;timestamp;pressure;altitude;pressure_sealevel;temperature;humidity
76819;BME280;65772;51.096;17.006;2022-12-08T00:00:34;99680.81;;;4.31;67.80
76819;BME280;65772;51.096;17.006;2022-12-08T00:03:04;99685.48;;;4.37;67.73
76819;BME280;65772;51.096;17.006;2022-12-08T00:05:35;99688.31;;;4.40;67.38
76819;BME280;65772;51.096;17.006;2022-12-08T00:08:23;99684.29;;;4.41;67.42
76819;BME280;65772;51.096;17.006;2022-12-08T00:11:13;99684.95;;;4.41;67.43
76819;BME280;65772;51.096;17.006;2022-12-08T00:13:44;99685.10;;;4.36;67.18
76819;BME280;65772;51.096;17.006;2022-12-08T00:16:15;99681.44;;;4.34;67.25
76819;BME280;65772;51.096;17.006;2022-12-08T00:18:46;99684.30;;;4.33;67.26
76819;BME280;65772;51.096;17.006;2022-12-08T00:21:16;99678.11;;;4.31;67.27
76819;BME280;65772;51.096;17.006;2022-12-08T00:23:47;99677.99;;;4.28;67.20
76819;BME280;65772;51.096;17.006;2022-12-08T00:26:17;99680.71;;;4.25;67.23
76819;BME280;65772;51.096;17.006;2022-12-08T00:28:48;99678.30;;;4.20;67.04
76819;BME280;65772;51.096;17.006;2022-12-08T00:31:18;99675.02;;;4.15;67.18
76819;BME280;65772;51.096;17.006;2022-12-08T00:33:49;99672.26;;;4.14;67.28
76819;BME280;65772;51.096;17.006;2022-12-08T00:36:19;99678.16;;;4.13;67.08
76819;BME280;65772;51.096;17.006;2022-12-08T00:38:50;99681.02;;;4.13;67.21
76819;BME280;65772;51.096;17.006;2022-12-08T00:41:22;99681.86;;;4.09;67.25
76819;BME280;65772;51.096;17.006;2022-12-08T00:44:15;99687.05;;;4.04;67.21
76819;BME280;65772;51.096;17.006;2022-12-08T00:46:48;99685.23;;;4.01;67.37
76819;BME280;65772;51.096;17.006;2022-12-08T00:49:19;99692.59;;;3.99;67.55
76819;BME280;65772;51.096;17.006;2022-12-08T00:51:50;99691.73;;;3.99;67.54
76819;BME280;65772;51.096;17.006;2022-12-08T00:54:21;99697.50;;;4.08;67.40
76819;BME280;65772;51.096;17.006;2022-12-08T00:56:52;99695.33;;;4.11;67.48
76819;BME280;65772;51.096;17.006;2022-12-08T00:59:22;99696.30;;;4.15;67.58
76819;BME280;65772;51.096;17.006;2022-12-08T01:01:53;99697.80;;;4.18;67.45
76819;BME280;65772;51.096;17.006;2022-12-08T01:04:25;99700.05;;;4.19;67.36
76819;BME280;65772;51.096;17.006;2022-12-08T01:06:55;99702.75;;;4.23;67.46
76819;BME280;65772;51.096;17.006;2022-12-08T01:09:26;99702.16;;;4.29;67.68
76819;BME280;65772;51.096;17.006;2022-12-08T01:11:56;99699.80;;;4.32;67.54
76819;BME280;65772;51.096;17.006;2022-12-08T01:14:27;99695.17;;;4.35;67.52
76819;BME280;65772;51.096;17.006;2022-12-08T01:16:58;99693.20;;;4.36;67.39
76819;BME280;65772;51.096;17.006;2022-12-08T01:19:28;99695.58;;;4.37;67.03
76819;BME280;65772;51.096;17.006;2022-12-08T01:21:59;99686.08;;;4.36;67.29
76819;BME280;65772;51.096;17.006;2022-12-08T01:24:29;99682.26;;;4.33;67.10
76819;BME280;65772;51.096;17.006;2022-12-08T01:27:00;99685.54;;;4.27;66.86
76819;BME280;65772;51.096;17.006;2022-12-08T01:29:31;99680.27;;;4.22;66.97
76819;BME280;65772;51.096;17.006;2022-12-08T01:32:02;99681.61;;;4.18;66.88
76819;BME280;65772;51.096;17.006;2022-12-08T01:34:33;99685.95;;;4.13;66.98
76819;BME280;65772;51.096;17.006;2022-12-08T01:37:04;99685.46;;;4.10;67.02
76819;BME280;65772;51.096;17.006;2022-12-08T01:39:35;99678.98;;;4.05;66.91
76819;BME280;65772;51.096;17.006;2022-12-08T01:42:07;99675.46;;;4.01;66.71
76819;BME280;65772;51.096;17.006;2022-12-08T01:45:00;99677.64;;;4.01;66.87
76819;BME280;65772;51.096;17.006;2022-12-08T01:47:41;99688.02;;;4.03;66.98
76819;BME280;65772;51.096;17.006;2022-12-08T01:50:15;99693.30;;;4.04;66.90
76819;BME280;65772;51.096;17.006;2022-12-08T01:52:49;99691.70;;;4.06;66.97
76819;BME280;65772;51.096;17.006;2022-12-08T01:55:26;99684.34;;;4.08;67.07
76819;BME280;65772;51.096;17.006;2022-12-08T01:58:01;99686.30;;;4.10;67.02
76819;BME280;65772;51.096;17.006;2022-12-08T02:00:33;99683.88;;;4.20;66.82
76819;BME280;65772;51.096;17.006;2022-12-08T02:03:08;99679.05;;;4.26;66.89
76819;BME280;65772;51.096;17.006;2022-12-08T02:05:41;99677.76;;;4.31;66.86
76819;BME280;65772;51.096;17.006;2022-12-08T02:08:13;99679.30;;;4.35;66.65
76819;BME280;65772;51.096;17.006;2022-12-08T02:10:45;99676.16;;;4.37;66.50
76819;BME280;65772;51.096;17.006;2022-12-08T02:13:18;99674.27;;;4.40;66.41
76819;BME280;65772;51.096;17.006;2022-12-08T02:15:57;99671.15;;;4.42;66.54
76819;BME280;65772;51.096;17.006;2022-12-08T02:18:38;99671.08;;;4.40;66.49
76819;BME280;65772;51.096;17.006;2022-12-08T02:21:16;99671.48;;;4.38;66.32
76819;BME280;65772;51.096;17.006;2022-12-08T02:23:56;99670.23;;;4.36;66.39
76819;BME280;65772;51.096;17.006;2022-12-08T02:27:07;99674.17;;;4.33;66.23
76819;BME280;65772;51.096;17.006;2022-12-08T02:35:49;99678.18;;;4.25;66.22
76819;BME280;65772;51.096;17.006;2022-12-08T02:38:31;99679.70;;;4.25;66.19
76819;BME280;65772;51.096;17.006;2022-12-08T02:41:25;99679.18;;;4.25;66.27
76819;BME280;65772;51.096;17.006;2022-12-08T02:44:01;99677.47;;;4.25;66.07
76819;BME280;65772;51.096;17.006;2022-12-08T02:46:37;99671.37;;;4.24;66.08
76819;BME280;65772;51.096;17.006;2022-12-08T02:49:10;99668.48;;;4.23;66.10
76819;BME280;65772;51.096;17.006;2022-12-08T02:51:43;99668.13;;;4.23;66.12
76819;BME280;65772;51.096;17.006;2022-12-08T02:54:14;99665.64;;;4.20;66.27
76819;BME280;65772;51.096;17.006;2022-12-08T02:57:01;99668.04;;;4.17;66.09
76819;BME280;65772;51.096;17.006;2022-12-08T02:59:45;99668.40;;;4.14;66.27
76819;BME280;65772;51.096;17.006;2022-12-08T03:02:41;99664.72;;;4.11;66.02
76819;BME280;65772;51.096;17.006;2022-12-08T03:05:22;99660.67;;;4.07;66.11
76819;BME280;65772;51.096;17.006;2022-12-08T03:08:01;99661.16;;;4.03;66.26
76819;BME280;65772;51.096;17.006;2022-12-08T03:10:36;99661.07;;;4.00;66.34
76819;BME280;65772;51.096;17.006;2022-12-08T03:13:12;99662.35;;;3.99;66.38
76819;BME280;65772;51.096;17.006;2022-12-08T03:15:46;99661.71;;;4.00;66.36
76819;BME280;65772;51.096;17.006;2022-12-08T03:18:21;99656.83;;;4.08;66.58
76819;BME280;65772;51.096;17.006;2022-12-08T03:20:52;99650.24;;;4.12;66.35
76819;BME280;65772;51.096;17.006;2022-12-08T03:23:24;99649.19;;;4.15;66.31
76819;BME280;65772;51.096;17.006;2022-12-08T03:26:00;99648.71;;;4.19;66.19
76819;BME280;65772;51.096;17.006;2022-12-08T03:28:33;99650.02;;;4.22;66.07
76819;BME280;65772;51.096;17.006;2022-12-08T03:31:06;99647.95;;;4.25;66.25
76819;BME280;65772;51.096;17.006;2022-12-08T03:33:42;99649.98;;;4.29;66.46
76819;BME280;65772;51.096;17.006;2022-12-08T03:36:14;99650.73;;;4.31;66.23
76819;BME280;65772;51.096;17.006;2022-12-08T03:38:48;99656.08;;;4.33;66.24
76819;BME280;65772;51.096;17.006;2022-12-08T03:41:21;99658.33;;;4.35;66.29
76819;BME280;65772;51.096;17.006;2022-12-08T03:43:53;99659.05;;;4.36;66.14
76819;BME280;65772;51.096;17.006;2022-12-08T03:46:25;99660.08;;;4.36;66.18
76819;BME280;65772;51.096;17.006;2022-12-08T03:48:56;99662.35;;;4.34;66.00
76819;BME280;65772;51.096;17.006;2022-12-08T03:51:26;99662.45;;;4.32;66.12
76819;BME280;65772;51.096;17.006;2022-12-08T03:53:57;99661.38;;;4.31;66.02
76819;BME280;65772;51.096;17.006;2022-12-08T03:56:30;99663.83;;;4.29;66.06
76819;BME280;65772;51.096;17.006;2022-12-08T03:59:02;99662.92;;;4.28;66.28
76819;BME280;65772;51.096;17.006;2022-12-08T04:01:33;99661.96;;;4.25;66.10
76819;BME280;65772;51.096;17.006;2022-12-08T04:04:04;99662.19;;;4.22;66.25
76819;BME280;65772;51.096;17.006;2022-12-08T04:06:34;99663.61;;;4.20;66.26
76819;BME280;65772;51.096;17.006;2022-12-08T04:09:05;99659.75;;;4.17;66.32
76819;BME280;65772;51.096;17.006;2022-12-08T04:11:35;99655.94;;;4.15;66.33
76819;BME280;65772;51.096;17.006;2022-12-08T04:14:06;99658.91;;;4.13;66.75
76819;BME280;65772;51.096;17.006;2022-12-08T04:16:36;99653.58;;;4.11;66.53
76819;BME280;65772;51.096;17.006;2022-12-08T04:19:07;99653.46;;;4.09;66.62
76819;BME280;65772;51.096;17.006;2022-12-08T04:21:37;99647.09;;;4.06;66.60
76819;BME280;65772;51.096;17.006;2022-12-08T04:24:09;99638.64;;;4.05;66.68
76819;BME280;65772;51.096;17.006;2022-12-08T04:26:39;99636.45;;;4.13;66.65
76819;BME280;65772;51.096;17.006;2022-12-08T04:29:10;99631.83;;;4.19;66.76
76819;BME280;65772;51.096;17.006;2022-12-08T04:31:40;99633.02;;;4.24;66.68
76819;BME280;65772;51.096;17.006;2022-12-08T04:34:11;99633.16;;;4.27;66.61
76819;BME280;65772;51.096;17.006;2022-12-08T04:36:42;99635.98;;;4.30;66.81
76819;BME280;65772;51.096;17.006;2022-12-08T04:39:13;99635.27;;;4.33;66.80
76819;BME280;65772;51.096;17.006;2022-12-08T04:41:43;99637.35;;;4.34;66.85
76819;BME280;65772;51.096;17.006;2022-12-08T04:44:13;99638.56;;;4.35;66.90
76819;BME280;65772;51.096;17.006;2022-12-08T04:46:44;99634.98;;;4.34;66.76
76819;BME280;65772;51.096;17.006;2022-12-08T04:49:14;99632.23;;;4.33;66.76
76819;BME280;65772;51.096;17.006;2022-12-08T04:51:45;99631.27;;;4.30;66.64
76819;BME280;65772;51.096;17.006;2022-12-08T04:54:15;99627.30;;;4.28;66.76
76819;BME280;65772;51.096;17.006;2022-12-08T04:56:46;99626.64;;;4.25;66.88
76819;BME280;65772;51.096;17.006;2022-12-08T04:59:16;99626.58;;;4.23;66.80
76819;BME280;65772;51.096;17.006;2022-12-08T05:01:47;99624.73;;;4.19;66.90
76819;BME280;65772;51.096;17.006;2022-12-08T05:04:17;99620.79;;;4.15;66.90
76819;BME280;65772;51.096;17.006;2022-12-08T05:06:48;99619.96;;;4.11;66.89
76819;BME280;65772;51.096;17.006;2022-12-08T05:09:19;99621.71;;;4.05;66.77
76819;BME280;65772;51.096;17.006;2022-12-08T05:11:49;99617.88;;;4.01;66.81
76819;BME280;65772;51.096;17.006;2022-12-08T05:14:20;99616.96;;;4.00;67.01
76819;BME280;65772;51.096;17.006;2022-12-08T05:16:50;99613.20;;;3.99;66.93
76819;BME280;65772;51.096;17.006;2022-12-08T05:19:21;99613.48;;;3.98;66.97
76819;BME280;65772;51.096;17.006;2022-12-08T05:21:52;99610.29;;;3.94;67.15
76819;BME280;65772;51.096;17.006;2022-12-08T05:24:22;99609.48;;;3.91;66.99
76819;BME280;65772;51.096;17.006;2022-12-08T05:26:53;99615.64;;;3.89;66.94
76819;BME280;65772;51.096;17.006;2022-12-08T05:29:24;99616.17;;;3.89;67.13
76819;BME280;65772;51.096;17.006;2022-12-08T05:31:54;99613.25;;;3.96;67.19
76819;BME280;65772;51.096;17.006;2022-12-08T05:34:25;99610.87;;;3.99;67.22
76819;BME280;65772;51.096;17.006;2022-12-08T05:36:56;99609.98;;;4.02;67.03
76819;BME280;65772;51.096;17.006;2022-12-08T05:39:26;99610.42;;;4.05;67.06
76819;BME280;65772;51.096;17.006;2022-12-08T05:41:57;99607.46;;;4.07;67.22
76819;BME280;65772;51.096;17.006;2022-12-08T05:44:28;99606.46;;;4.07;67.30
76819;BME280;65772;51.096;17.006;2022-12-08T05:46:58;99608.46;;;4.07;67.18
76819;BME280;65772;51.096;17.006;2022-12-08T05:49:29;99605.31;;;4.04;67.23
76819;BME280;65772;51.096;17.006;2022-12-08T05:51:59;99605.94;;;4.02;67.23
76819;BME280;65772;51.096;17.006;2022-12-08T05:54:30;99607.15;;;3.99;67.10
76819;BME280;65772;51.096;17.006;2022-12-08T05:57:01;99606.90;;;3.97;67.18
76819;BME280;65772;51.096;17.006;2022-12-08T05:59:31;99610.02;;;3.96;67.18
76819;BME280;65772;51.096;17.006;2022-12-08T06:02:02;99601.48;;;3.94;67.41
76819;BME280;65772;51.096;17.006;2022-12-08T06:04:33;99600.27;;;3.93;67.34
76819;BME280;65772;51.096;17.006;2022-12-08T06:07:03;99600.36;;;3.91;67.33
76819;BME280;65772;51.096;17.006;2022-12-08T06:09:34;99600.46;;;3.89;67.32
76819;BME280;65772;51.096;17.006;2022-12-08T06:12:05;99598.34;;;3.87;67.39
76819;BME280;65772;51.096;17.006;2022-12-08T06:14:35;99602.77;;;3.85;67.48
76819;BME280;65772;51.096;17.006;2022-12-08T06:17:06;99604.17;;;3.82;67.48
76819;BME280;65772;51.096;17.006;2022-12-08T06:19:37;99604.06;;;3.79;67.64
76819;BME280;65772;51.096;17.006;2022-12-08T06:22:07;99607.35;;;3.77;67.48
76819;BME280;65772;51.096;17.006;2022-12-08T06:24:38;99605.91;;;3.75;67.66
76819;BME280;65772;51.096;17.006;2022-12-08T06:27:08;99603.64;;;3.74;67.57
76819;BME280;65772;51.096;17.006;2022-12-08T06:29:39;99603.25;;;3.73;67.61
76819;BME280;65772;51.096;17.006;2022-12-08T06:32:10;99596.64;;;3.79;67.73
76819;BME280;65772;51.096;17.006;2022-12-08T06:34:40;99597.16;;;3.84;67.79
76819;BME280;65772;51.096;17.006;2022-12-08T06:37:12;99600.58;;;3.85;67.61
76819;BME280;65772;51.096;17.006;2022-12-08T06:39:42;99602.29;;;3.89;67.84
76819;BME280;65772;51.096;17.006;2022-12-08T06:42:13;99606.25;;;3.91;67.72
76819;BME280;65772;51.096;17.006;2022-12-08T06:45:02;99606.66;;;3.92;67.89
76819;BME280;65772;51.096;17.006;2022-12-08T06:47:33;99610.21;;;3.92;67.84
76819;BME280;65772;51.096;17.006;2022-12-08T06:50:05;99609.17;;;3.92;67.63
76819;BME280;65772;51.096;17.006;2022-12-08T06:52:36;99606.79;;;3.91;67.74
76819;BME280;65772;51.096;17.006;2022-12-08T06:55:24;99606.92;;;3.90;67.80
76819;BME280;65772;51.096;17.006;2022-12-08T06:58:15;99608.02;;;3.89;67.76
76819;BME280;65772;51.096;17.006;2022-12-08T07:00:45;99610.76;;;3.86;67.66
76819;BME280;65772;51.096;17.006;2022-12-08T07:03:16;99610.30;;;3.83;67.92
76819;BME280;65772;51.096;17.006;2022-12-08T07:05:46;99610.91;;;3.82;67.96
76819;BME280;65772;51.096;17.006;2022-12-08T07:08:17;99611.73;;;3.81;68.00
76819;BME280;65772;51.096;17.006;2022-12-08T07:10:48;99607.08;;;3.79;67.89
76819;BME280;65772;51.096;17.006;2022-12-08T07:13:18;99612.07;;;3.77;67.86
76819;BME280;65772;51.096;17.006;2022-12-08T07:15:49;99610.15;;;3.76;67.89
76819;BME280;65772;51.096;17.006;2022-12-08T07:18:19;99608.11;;;3.75;68.09
76819;BME280;65772;51.096;17.006;2022-12-08T07:20:50;99608.61;;;3.76;68.15
76819;BME280;65772;51.096;17.006;2022-12-08T07:23:20;99606.30;;;3.77;68.21
76819;BME280;65772;51.096;17.006;2022-12-08T07:25:51;99611.77;;;3.78;68.29
76819;BME280;65772;51.096;17.006;2022-12-08T07:28:21;99609.85;;;3.88;68.19
76819;BME280;65772;51.096;17.006;2022-12-08T07:30:52;99610.84;;;3.95;68.21
76819;BME280;65772;51.096;17.006;2022-12-08T07:33:22;99610.59;;;4.01;68.19
76819;BME280;65772;51.096;17.006;2022-12-08T07:35:58;99611.23;;;4.08;68.22
76819;BME280;65772;51.096;17.006;2022-12-08T07:38:29;99609.90;;;4.13;68.16
76819;BME280;65772;51.096;17.006;2022-12-08T07:41:00;99614.10;;;4.16;68.11
76819;BME280;65772;51.096;17.006;2022-12-08T07:43:31;99611.87;;;4.19;68.22
76819;BME280;65772;51.096;17.006;2022-12-08T07:46:01;99612.63;;;4.21;67.89
76819;BME280;65772;51.096;17.006;2022-12-08T07:48:32;99617.09;;;4.22;67.96
76819;BME280;65772;51.096;17.006;2022-12-08T07:51:04;99619.82;;;4.23;68.15
76819;BME280;65772;51.096;17.006;2022-12-08T07:53:34;99618.64;;;4.23;67.91
76819;BME280;65772;51.096;17.006;2022-12-08T07:56:08;99617.63;;;4.23;68.02
76819;BME280;65772;51.096;17.006;2022-12-08T07:58:39;99618.82;;;4.23;67.94
76819;BME280;65772;51.096;17.006;2022-12-08T08:01:20;99623.27;;;4.25;68.06
76819;BME280;65772;51.096;17.006;2022-12-08T08:03:52;99621.86;;;4.28;67.99
76819;BME280;65772;51.096;17.006;2022-12-08T08:06:23;99618.41;;;4.30;67.98
76819;BME280;65772;51.096;17.006;2022-12-08T08:08:53;99623.35;;;4.30;67.95
76819;BME280;65772;51.096;17.006;2022-12-08T08:11:24;99622.38;;;4.31;67.81
76819;BME280;65772;51.096;17.006;2022-12-08T08:13:54;99624.16;;;4.34;67.84
76819;BME280;65772;51.096;17.006;2022-12-08T08:16:25;99625.69;;;4.38;67.87
76819;BME280;65772;51.096;17.006;2022-12-08T08:19:03;99625.05;;;4.43;67.88
76819;BME280;65772;51.096;17.006;2022-12-08T08:21:33;99622.48;;;4.47;67.75
76819;BME280;65772;51.096;17.006;2022-12-08T08:24:14;99621.77;;;4.49;67.70
76819;BME280;65772;51.096;17.006;2022-12-08T08:26:45;99620.67;;;4.56;67.56
76819;BME280;65772;51.096;17.006;2022-12-08T08:29:16;99624.72;;;4.68;67.68
76819;BME280;65772;51.096;17.006;2022-12-08T08:31:46;99617.66;;;4.77;67.38
76819;BME280;65772;51.096;17.006;2022-12-08T08:34:17;99614.15;;;4.86;67.46
76819;BME280;65772;51.096;17.006;2022-12-08T08:36:47;99611.19;;;4.97;67.12
76819;BME280;65772;51.096;17.006;2022-12-08T08:39:18;99615.22;;;5.04;67.27
76819;BME280;65772;51.096;17.006;2022-12-08T08:41:48;99617.67;;;5.11;67.01
76819;BME280;65772;51.096;17.006;2022-12-08T08:44:19;99614.79;;;5.15;67.00
76819;BME280;65772;51.096;17.006;2022-12-08T08:46:49;99615.46;;;5.19;66.85
76819;BME280;65772;51.096;17.006;2022-12-08T08:49:20;99615.25;;;5.23;66.64
76819;BME280;65772;51.096;17.006;2022-12-08T08:51:51;99613.23;;;5.27;66.30
76819;BME280;65772;51.096;17.006;2022-12-08T08:54:21;99610.02;;;5.32;66.39
76819;BME280;65772;51.096;17.006;2022-12-08T08:56:52;99610.38;;;5.37;66.28
76819;BME280;65772;51.096;17.006;2022-12-08T08:59:23;99609.45;;;5.39;65.96
76819;BME280;65772;51.096;17.006;2022-12-08T09:01:54;99607.64;;;5.45;66.13
76819;BME280;65772;51.096;17.006;2022-12-08T09:04:24;99601.42;;;5.51;65.81
76819;BME280;65772;51.096;17.006;2022-12-08T09:06:55;99601.36;;;5.54;65.98
76819;BME280;65772;51.096;17.006;2022-12-08T09:09:26;99595.32;;;5.59;65.68
76819;BME280;65772;51.096;17.006;2022-12-08T09:11:57;99595.31;;;5.64;65.10
76819;BME280;65772;51.096;17.006;2022-12-08T09:14:27;99592.14;;;5.69;65.06
76819;BME280;65772;51.096;17.006;2022-12-08T09:16:58;99597.30;;;5.72;64.87
76819;BME280;65772;51.096;17.006;2022-12-08T09:19:28;99592.90;;;5.72;64.59
76819;BME280;65772;51.096;17.006;2022-12-08T09:21:59;99596.76;;;5.76;64.52
76819;BME280;65772;51.096;17.006;2022-12-08T09:24:29;99591.08;;;5.77;64.21
76819;BME280;65772;51.096;17.006;2022-12-08T09:27:00;99584.69;;;5.79;64.25
76819;BME280;65772;51.096;17.006;2022-12-08T09:29:30;99584.72;;;5.79;63.95
76819;BME280;65772;51.096;17.006;2022-12-08T09:32:05;99584.59;;;5.81;63.51
76819;BME280;65772;51.096;17.006;2022-12-08T09:34:35;99585.24;;;5.80;63.03
76819;BME280;65772;51.096;17.006;2022-12-08T09:37:05;99587.21;;;5.78;62.68
76819;BME280;65772;51.096;17.006;2022-12-08T09:39:36;99586.85;;;5.78;62.71
76819;BME280;65772;51.096;17.006;2022-12-08T09:42:08;99585.09;;;5.81;62.18
76819;BME280;65772;51.096;17.006;2022-12-08T09:44:41;99580.11;;;5.84;62.04
76819;BME280;65772;51.096;17.006;2022-12-08T09:47:18;99582.02;;;5.89;62.19
76819;BME280;65772;51.096;17.006;2022-12-08T09:49:53;99577.94;;;5.93;61.97
76819;BME280;65772;51.096;17.006;2022-12-08T09:52:28;99579.58;;;5.97;61.77
76819;BME280;65772;51.096;17.006;2022-12-08T09:55:02;99575.60;;;5.99;61.38
76819;BME280;65772;51.096;17.006;2022-12-08T09:57:33;99576.30;;;5.99;61.55
76819;BME280;65772;51.096;17.006;2022-12-08T10:00:09;99576.92;;;6.03;61.85
76819;BME280;65772;51.096;17.006;2022-12-08T10:02:40;99574.80;;;6.05;61.38
76819;BME280;65772;51.096;17.006;2022-12-08T10:05:14;99571.29;;;6.11;61.16
76819;BME280;65772;51.096;17.006;2022-12-08T10:07:49;99568.24;;;6.16;61.28
76819;BME280;65772;51.096;17.006;2022-12-08T10:10:32;99567.59;;;6.22;61.48
76819;BME280;65772;51.096;17.006;2022-12-08T10:13:10;99566.19;;;6.26;60.94
76819;BME280;65772;51.096;17.006;2022-12-08T10:15:48;99567.77;;;6.28;60.64
76819;BME280;65772;51.096;17.006;2022-12-08T10:18:26;99565.19;;;6.31;60.88
76819;BME280;65772;51.096;17.006;2022-12-08T10:21:04;99557.69;;;6.34;60.53
76819;BME280;65772;51.096;17.006;2022-12-08T10:23:42;99560.33;;;6.38;60.43
76819;BME280;65772;51.096;17.006;2022-12-08T10:26:16;99554.71;;;6.42;60.66
76819;BME280;65772;51.096;17.006;2022-12-08T10:28:47;99558.04;;;6.45;60.25
76819;BME280;65772;51.096;17.006;2022-12-08T10:31:20;99551.02;;;6.49;60.05
76819;BME280;65772;51.096;17.006;2022-12-08T10:33:56;99546.95;;;6.53;59.99
76819;BME280;65772;51.096;17.006;2022-12-08T10:36:45;99549.06;;;6.56;59.93
76819;BME280;65772;51.096;17.006;2022-12-08T10:39:33;99543.39;;;6.54;59.63
76819;BME280;65772;51.096;17.006;2022-12-08T10:42:08;99544.77;;;6.49;59.55
76819;BME280;65772;51.096;17.006;2022-12-08T10:44:56;99543.45;;;6.50;59.76
76819;BME280;65772;51.096;17.006;2022-12-08T10:47:28;99539.38;;;6.50;59.46
76819;BME280;65772;51.096;17.006;2022-12-08T10:50:20;99543.67;;;6.47;59.61
76819;BME280;65772;51.096;17.006;2022-12-08T10:52:57;99539.41;;;6.46;59.34
76819;BME280;65772;51.096;17.006;2022-12-08T10:55:30;99540.64;;;6.47;60.14
76819;BME280;65772;51.096;17.006;2022-12-08T10:58:24;99541.09;;;6.50;59.79
76819;BME280;65772;51.096;17.006;2022-12-08T11:00:56;99538.77;;;6.52;59.92
76819;BME280;65772;51.096;17.006;2022-12-08T11:03:30;99537.85;;;6.55;59.97
76819;BME280;65772;51.096;17.006;2022-12-08T11:06:11;99537.68;;;6.55;59.65
76819;BME280;65772;51.096;17.006;2022-12-08T11:08:49;99535.88;;;6.57;59.75
76819;BME280;65772;51.096;17.006;2022-12-08T11:11:21;99531.48;;;6.58;59.56
76819;BME280;65772;51.096;17.006;2022-12-08T11:14:11;99533.21;;;6.59;59.71
76819;BME280;65772;51.096;17.006;2022-12-08T11:16:44;99526.83;;;6.61;59.60
76819;BME280;65772;51.096;17.006;2022-12-08T11:19:17;99529.84;;;6.65;59.56
76819;BME280;65772;51.096;17.006;2022-12-08T11:21:48;99526.36;;;6.67;59.48
76819;BME280;65772;51.096;17.006;2022-12-08T11:24:24;99523.48;;;6.68;59.43
76819;BME280;65772;51.096;17.006;2022-12-08T11:27:01;99521.38;;;6.71;59.51
76819;BME280;65772;51.096;17.006;2022-12-08T11:29:34;99523.52;;;6.74;59.57
76819;BME280;65772;51.096;17.006;2022-12-08T11:32:09;99523.07;;;6.76;59.50
76819;BME280;65772;51.096;17.006;2022-12-08T11:34:45;99522.90;;;6.76;59.56
76819;BME280;65772;51.096;17.006;2022-12-08T11:37:21;99519.70;;;6.77;59.48
76819;BME280;65772;51.096;17.006;2022-12-08T11:40:06;99520.81;;;6.80;59.45
76819;BME280;65772;51.096;17.006;2022-12-08T11:42:43;99520.55;;;6.82;59.25
76819;BME280;65772;51.096;17.006;2022-12-08T11:45:21;99518.94;;;6.80;58.93
76819;BME280;65772;51.096;17.006;2022-12-08T11:48:00;99519.31;;;6.75;58.69
76819;BME280;65772;51.096;17.006;2022-12-08T11:50:41;99519.52;;;6.71;58.83
76819;BME280;65772;51.096;17.006;2022-12-08T11:53:19;99519.41;;;6.68;58.49
76819;BME280;65772;51.096;17.006;2022-12-08T11:55:56;99514.43;;;6.66;58.79
76819;BME280;65772;51.096;17.006;2022-12-08T11:58:33;99511.69;;;6.65;58.66
76819;BME280;65772;51.096;17.006;2022-12-08T12:01:07;99514.96;;;6.61;58.67
76819;BME280;65772;51.096;17.006;2022-12-08T12:03:45;99508.64;;;6.54;58.60
76819;BME280;65772;51.096;17.006;2022-12-08T12:06:30;99508.96;;;6.48;58.23
76819;BME280;65772;51.096;17.006;2022-12-08T12:09:33;99503.17;;;6.42;58.82
76819;BME280;65772;51.096;17.006;2022-12-08T12:12:15;99503.35;;;6.42;58.42
76819;BME280;65772;51.096;17.006;2022-12-08T12:15:17;99496.58;;;6.42;58.54
76819;BME280;65772;51.096;17.006;2022-12-08T12:17:58;99496.81;;;6.44;58.76
76819;BME280;65772;51.096;17.006;2022-12-08T12:20:34;99495.73;;;6.48;58.59
76819;BME280;65772;51.096;17.006;2022-12-08T12:23:18;99496.36;;;6.51;58.89
76819;BME280;65772;51.096;17.006;2022-12-08T12:25:54;99496.16;;;6.56;58.88
76819;BME280;65772;51.096;17.006;2022-12-08T12:28:27;99498.71;;;6.62;59.03
76819;BME280;65772;51.096;17.006;2022-12-08T12:31:02;99496.70;;;6.68;59.03
76819;BME280;65772;51.096;17.006;2022-12-08T12:33:35;99497.86;;;6.73;59.02
76819;BME280;65772;51.096;17.006;2022-12-08T12:36:08;99498.50;;;6.77;58.89
76819;BME280;65772;51.096;17.006;2022-12-08T12:38:42;99494.70;;;6.80;59.17
76819;BME280;65772;51.096;17.006;2022-12-08T12:41:40;99491.73;;;6.83;58.74
76819;BME280;65772;51.096;17.006;2022-12-08T12:44:37;99493.31;;;6.84;58.76
76819;BME280;65772;51.096;17.006;2022-12-08T12:47:14;99492.48;;;6.91;58.84
76819;BME280;65772;51.096;17.006;2022-12-08T12:50:10;99491.82;;;6.97;58.60
76819;BME280;65772;51.096;17.006;2022-12-08T12:52:45;99486.19;;;7.02;58.66
76819;BME280;65772;51.096;17.006;2022-12-08T12:55:27;99483.86;;;7.09;58.47
76819;BME280;65772;51.096;17.006;2022-12-08T12:58:02;99480.34;;;7.16;58.51
76819;BME280;65772;51.096;17.006;2022-12-08T13:00:38;99484.04;;;7.21;58.18
76819;BME280;65772;51.096;17.006;2022-12-08T13:03:13;99482.73;;;7.23;58.07
76819;BME280;65772;51.096;17.006;2022-12-08T13:05:50;99482.28;;;7.25;57.81
76819;BME280;65772;51.096;17.006;2022-12-08T13:08:24;99480.36;;;7.29;57.88
76819;BME280;65772;51.096;17.006;2022-12-08T13:11:00;99478.24;;;7.38;57.92
76819;BME280;65772;51.096;17.006;2022-12-08T13:13:32;99473.75;;;7.48;57.73
76819;BME280;65772;51.096;17.006;2022-12-08T13:16:15;99467.25;;;7.52;57.57
76819;BME280;65772;51.096;17.006;2022-12-08T13:18:50;99465.73;;;7.53;57.61
76819;BME280;65772;51.096;17.006;2022-12-08T13:21:22;99467.55;;;7.50;57.35
76819;BME280;65772;51.096;17.006;2022-12-08T13:24:13;99473.00;;;7.45;57.13
76819;BME280;65772;51.096;17.006;2022-12-08T13:26:46;99470.79;;;7.39;57.20
76819;BME280;65772;51.096;17.006;2022-12-08T13:29:22;99467.35;;;7.37;57.32
76819;BME280;65772;51.096;17.006;2022-12-08T13:31:54;99467.79;;;7.41;57.13
76819;BME280;65772;51.096;17.006;2022-12-08T13:34:31;99467.91;;;7.46;57.02
76819;BME280;65772;51.096;17.006;2022-12-08T13:37:22;99465.98;;;7.49;56.92
76819;BME280;65772;51.096;17.006;2022-12-08T13:39:57;99467.75;;;7.52;56.74
76819;BME280;65772;51.096;17.006;2022-12-08T13:42:34;99466.27;;;7.54;56.73